Angora, Minnesota
Current Conditions -  °F | °C
As of 6:14 AM on Monday 24 Nov 2014 (Local Time) from KCQM Reporting Station
Light Snow Light Snow  
Wind Chill: 20°   Ceiling: 1000
Heat Index: 28°   Visibility: 4mi
Dew Point: 28°   Wind: 8mph
Humidity: 100%   Direction: 330°NNW
Pressure: 29.3"   Gusts: NA
Location:  47.77°N, 92.63°W
Report Text: KCQM 241214Z AUTO 33007KT 4SM -SN OVC010 M02/M02 A2930 RMK AO2
Loading
Personal Weather Stations






























Interactive Weather Map New forecast layout! Learn more

10-Day Weather Forecast

Advertisements
Track Severe Weather on mobile